sensor_id;sensor_type;location;lat;lon;timestamp;P1;durP1;ratioP1;P2;durP2;ratioP2
568;SDS011;269;48.884;9.192;2022-09-23T00:02:20;5.13;;;4.70;;
568;SDS011;269;48.884;9.192;2022-09-23T00:04:47;5.18;;;4.78;;
568;SDS011;269;48.884;9.192;2022-09-23T00:07:14;4.97;;;4.57;;
568;SDS011;269;48.884;9.192;2022-09-23T00:09:43;4.95;;;4.30;;
568;SDS011;269;48.884;9.192;2022-09-23T00:12:11;5.05;;;4.60;;
568;SDS011;269;48.884;9.192;2022-09-23T00:14:38;4.97;;;4.57;;
568;SDS011;269;48.884;9.192;2022-09-23T00:17:05;4.70;;;4.30;;
568;SDS011;269;48.884;9.192;2022-09-23T00:19:32;4.63;;;4.18;;
568;SDS011;269;48.884;9.192;2022-09-23T00:21:59;5.68;;;5.20;;
568;SDS011;269;48.884;9.192;2022-09-23T00:24:26;4.78;;;4.43;;
568;SDS011;269;48.884;9.192;2022-09-23T00:26:58;4.80;;;4.50;;
568;SDS011;269;48.884;9.192;2022-09-23T00:29:25;4.75;;;4.20;;
568;SDS011;269;48.884;9.192;2022-09-23T00:31:52;5.78;;;4.70;;
568;SDS011;269;48.884;9.192;2022-09-23T00:34:19;4.80;;;4.40;;
568;SDS011;269;48.884;9.192;2022-09-23T00:36:46;4.88;;;4.47;;
568;SDS011;269;48.884;9.192;2022-09-23T00:39:13;5.13;;;4.38;;
568;SDS011;269;48.884;9.192;2022-09-23T00:41:40;4.78;;;4.30;;
568;SDS011;269;48.884;9.192;2022-09-23T00:47:15;5.43;;;5.03;;
568;SDS011;269;48.884;9.192;2022-09-23T00:49:46;5.25;;;4.75;;
568;SDS011;269;48.884;9.192;2022-09-23T00:52:19;5.18;;;4.75;;
568;SDS011;269;48.884;9.192;2022-09-23T00:54:49;4.82;;;4.53;;
568;SDS011;269;48.884;9.192;2022-09-23T00:57:20;7.70;;;4.70;;
568;SDS011;269;48.884;9.192;2022-09-23T00:59:50;4.75;;;4.35;;
568;SDS011;269;48.884;9.192;2022-09-23T01:02:17;5.80;;;5.40;;
568;SDS011;269;48.884;9.192;2022-09-23T01:04:46;5.85;;;5.40;;
568;SDS011;269;48.884;9.192;2022-09-23T01:07:15;6.80;;;6.20;;
568;SDS011;269;48.884;9.192;2022-09-23T01:09:42;5.95;;;5.45;;
568;SDS011;269;48.884;9.192;2022-09-23T01:12:15;6.15;;;5.32;;
568;SDS011;269;48.884;9.192;2022-09-23T01:14:54;6.32;;;5.82;;
568;SDS011;269;48.884;9.192;2022-09-23T01:17:29;8.43;;;7.32;;
568;SDS011;269;48.884;9.192;2022-09-23T01:23:04;7.93;;;7.22;;
568;SDS011;269;48.884;9.192;2022-09-23T01:25:50;9.05;;;7.43;;
568;SDS011;269;48.884;9.192;2022-09-23T01:28:37;8.02;;;7.32;;
568;SDS011;269;48.884;9.192;2022-09-23T01:31:19;7.95;;;7.35;;
568;SDS011;269;48.884;9.192;2022-09-23T01:33:51;8.63;;;7.93;;
568;SDS011;269;48.884;9.192;2022-09-23T01:36:23;10.65;;;8.30;;
568;SDS011;269;48.884;9.192;2022-09-23T01:38:55;10.55;;;9.65;;
568;SDS011;269;48.884;9.192;2022-09-23T01:41:33;9.63;;;8.77;;
568;SDS011;269;48.884;9.192;2022-09-23T01:44:12;10.35;;;9.43;;
568;SDS011;269;48.884;9.192;2022-09-23T01:46:48;10.82;;;9.70;;
568;SDS011;269;48.884;9.192;2022-09-23T01:49:20;12.38;;;9.15;;
568;SDS011;269;48.884;9.192;2022-09-23T01:51:52;10.48;;;9.55;;
568;SDS011;269;48.884;9.192;2022-09-23T01:54:27;11.77;;;9.77;;
568;SDS011;269;48.884;9.192;2022-09-23T01:57:03;10.32;;;9.45;;
568;SDS011;269;48.884;9.192;2022-09-23T01:59:35;10.98;;;9.93;;
568;SDS011;269;48.884;9.192;2022-09-23T02:02:07;11.35;;;10.35;;
568;SDS011;269;48.884;9.192;2022-09-23T02:04:41;10.40;;;9.50;;
568;SDS011;269;48.884;9.192;2022-09-23T02:07:12;10.77;;;9.68;;
568;SDS011;269;48.884;9.192;2022-09-23T02:09:53;11.27;;;10.27;;
568;SDS011;269;48.884;9.192;2022-09-23T02:12:23;10.32;;;9.35;;
568;SDS011;269;48.884;9.192;2022-09-23T02:14:56;11.05;;;10.15;;
568;SDS011;269;48.884;9.192;2022-09-23T02:17:29;10.75;;;9.75;;
568;SDS011;269;48.884;9.192;2022-09-23T02:20:04;11.30;;;10.15;;
568;SDS011;269;48.884;9.192;2022-09-23T02:22:33;10.85;;;9.88;;
568;SDS011;269;48.884;9.192;2022-09-23T02:25:06;10.68;;;9.68;;
568;SDS011;269;48.884;9.192;2022-09-23T02:27:35;10.85;;;9.85;;
568;SDS011;269;48.884;9.192;2022-09-23T02:30:06;11.60;;;10.40;;
568;SDS011;269;48.884;9.192;2022-09-23T02:32:41;11.98;;;10.98;;
568;SDS011;269;48.884;9.192;2022-09-23T02:35:16;11.05;;;9.95;;
568;SDS011;269;48.884;9.192;2022-09-23T02:37:47;11.25;;;10.25;;
568;SDS011;269;48.884;9.192;2022-09-23T02:40:22;11.63;;;10.45;;
568;SDS011;269;48.884;9.192;2022-09-23T02:42:56;10.88;;;9.98;;
568;SDS011;269;48.884;9.192;2022-09-23T02:45:30;10.90;;;9.88;;
568;SDS011;269;48.884;9.192;2022-09-23T02:48:00;11.10;;;10.10;;
568;SDS011;269;48.884;9.192;2022-09-23T02:50:32;11.07;;;10.07;;
568;SDS011;269;48.884;9.192;2022-09-23T02:52:59;9.98;;;9.07;;
568;SDS011;269;48.884;9.192;2022-09-23T02:55:27;10.25;;;9.35;;
568;SDS011;269;48.884;9.192;2022-09-23T02:57:55;10.75;;;9.82;;
568;SDS011;269;48.884;9.192;2022-09-23T03:00:25;10.77;;;9.77;;
568;SDS011;269;48.884;9.192;2022-09-23T03:03:05;9.88;;;9.18;;
568;SDS011;269;48.884;9.192;2022-09-23T03:05:44;11.10;;;8.88;;
568;SDS011;269;48.884;9.192;2022-09-23T03:08:22;9.23;;;8.52;;
568;SDS011;269;48.884;9.192;2022-09-23T03:11:07;9.60;;;8.70;;
568;SDS011;269;48.884;9.192;2022-09-23T03:13:41;9.10;;;8.27;;
568;SDS011;269;48.884;9.192;2022-09-23T03:16:31;10.73;;;9.73;;
568;SDS011;269;48.884;9.192;2022-09-23T03:19:10;10.07;;;9.23;;
568;SDS011;269;48.884;9.192;2022-09-23T03:21:45;9.98;;;8.98;;
568;SDS011;269;48.884;9.192;2022-09-23T03:24:19;9.73;;;8.90;;
568;SDS011;269;48.884;9.192;2022-09-23T03:26:49;9.20;;;8.50;;
568;SDS011;269;48.884;9.192;2022-09-23T03:29:18;9.52;;;8.63;;
568;SDS011;269;48.884;9.192;2022-09-23T03:31:46;8.23;;;7.40;;
568;SDS011;269;48.884;9.192;2022-09-23T03:34:17;9.73;;;8.90;;
568;SDS011;269;48.884;9.192;2022-09-23T03:36:49;8.90;;;8.13;;
568;SDS011;269;48.884;9.192;2022-09-23T03:39:30;9.25;;;8.00;;
568;SDS011;269;48.884;9.192;2022-09-23T03:42:02;9.45;;;8.55;;
568;SDS011;269;48.884;9.192;2022-09-23T03:44:36;9.63;;;8.85;;
568;SDS011;269;48.884;9.192;2022-09-23T03:47:07;9.07;;;8.38;;
568;SDS011;269;48.884;9.192;2022-09-23T03:49:38;9.65;;;8.80;;
568;SDS011;269;48.884;9.192;2022-09-23T03:52:06;9.70;;;8.60;;
568;SDS011;269;48.884;9.192;2022-09-23T03:54:33;9.45;;;8.65;;
568;SDS011;269;48.884;9.192;2022-09-23T03:57:00;9.70;;;8.77;;
568;SDS011;269;48.884;9.192;2022-09-23T03:59:27;9.82;;;8.93;;
568;SDS011;269;48.884;9.192;2022-09-23T04:01:55;9.88;;;8.90;;
568;SDS011;269;48.884;9.192;2022-09-23T04:04:23;9.45;;;8.75;;
568;SDS011;269;48.884;9.192;2022-09-23T04:06:53;9.25;;;8.55;;
568;SDS011;269;48.884;9.192;2022-09-23T04:09:20;9.02;;;8.23;;
568;SDS011;269;48.884;9.192;2022-09-23T04:11:48;9.20;;;8.40;;
568;SDS011;269;48.884;9.192;2022-09-23T04:14:15;9.57;;;8.70;;
568;SDS011;269;48.884;9.192;2022-09-23T04:16:44;10.45;;;9.45;;
568;SDS011;269;48.884;9.192;2022-09-23T04:19:11;9.90;;;8.75;;
568;SDS011;269;48.884;9.192;2022-09-23T04:21:40;9.05;;;8.30;;
568;SDS011;269;48.884;9.192;2022-09-23T04:24:09;9.50;;;8.52;;
568;SDS011;269;48.884;9.192;2022-09-23T04:26:37;8.25;;;7.55;;
568;SDS011;269;48.884;9.192;2022-09-23T04:29:05;9.05;;;8.15;;
568;SDS011;269;48.884;9.192;2022-09-23T04:31:32;9.25;;;8.25;;
568;SDS011;269;48.884;9.192;2022-09-23T04:34:00;8.23;;;7.53;;
568;SDS011;269;48.884;9.192;2022-09-23T04:36:27;11.05;;;8.80;;
568;SDS011;269;48.884;9.192;2022-09-23T04:38:54;9.23;;;8.52;;
568;SDS011;269;48.884;9.192;2022-09-23T04:41:23;9.27;;;8.45;;
568;SDS011;269;48.884;9.192;2022-09-23T04:43:50;9.52;;;8.73;;
568;SDS011;269;48.884;9.192;2022-09-23T04:46:18;9.82;;;9.02;;
568;SDS011;269;48.884;9.192;2022-09-23T04:48:45;8.90;;;8.20;;
568;SDS011;269;48.884;9.192;2022-09-23T04:51:14;8.75;;;8.05;;
568;SDS011;269;48.884;9.192;2022-09-23T04:53:43;10.02;;;8.90;;
568;SDS011;269;48.884;9.192;2022-09-23T04:56:13;9.27;;;8.48;;
568;SDS011;269;48.884;9.192;2022-09-23T04:58:43;9.23;;;8.43;;
568;SDS011;269;48.884;9.192;2022-09-23T05:01:11;9.50;;;8.70;;
568;SDS011;269;48.884;9.192;2022-09-23T05:03:40;9.07;;;8.38;;
568;SDS011;269;48.884;9.192;2022-09-23T05:06:09;9.73;;;8.82;;
568;SDS011;269;48.884;9.192;2022-09-23T05:08:38;8.70;;;7.90;;
568;SDS011;269;48.884;9.192;2022-09-23T05:11:05;9.00;;;8.30;;
568;SDS011;269;48.884;9.192;2022-09-23T05:13:33;9.95;;;8.95;;
568;SDS011;269;48.884;9.192;2022-09-23T05:16:03;9.43;;;8.63;;
568;SDS011;269;48.884;9.192;2022-09-23T05:18:32;8.98;;;8.27;;
568;SDS011;269;48.884;9.192;2022-09-23T05:20:59;9.90;;;9.10;;
568;SDS011;269;48.884;9.192;2022-09-23T05:23:27;8.63;;;7.95;;
568;SDS011;269;48.884;9.192;2022-09-23T05:25:54;9.45;;;8.65;;
568;SDS011;269;48.884;9.192;2022-09-23T05:28:23;9.55;;;8.75;;
568;SDS011;269;48.884;9.192;2022-09-23T05:30:52;8.80;;;8.10;;
568;SDS011;269;48.884;9.192;2022-09-23T05:33:21;9.88;;;9.00;;
568;SDS011;269;48.884;9.192;2022-09-23T05:35:49;10.02;;;9.13;;
568;SDS011;269;48.884;9.192;2022-09-23T05:38:16;9.32;;;8.50;;
568;SDS011;269;48.884;9.192;2022-09-23T05:40:43;9.88;;;8.88;;
568;SDS011;269;48.884;9.192;2022-09-23T05:43:10;9.75;;;8.85;;
568;SDS011;269;48.884;9.192;2022-09-23T05:45:37;9.80;;;8.90;;
568;SDS011;269;48.884;9.192;2022-09-23T05:48:04;9.70;;;8.77;;
568;SDS011;269;48.884;9.192;2022-09-23T05:50:32;9.60;;;8.70;;
568;SDS011;269;48.884;9.192;2022-09-23T05:53:00;10.32;;;9.43;;
568;SDS011;269;48.884;9.192;2022-09-23T05:55:26;9.30;;;8.45;;
568;SDS011;269;48.884;9.192;2022-09-23T05:57:53;8.43;;;7.57;;
568;SDS011;269;48.884;9.192;2022-09-23T06:00:20;8.50;;;7.70;;
568;SDS011;269;48.884;9.192;2022-09-23T06:02:47;8.40;;;7.70;;
568;SDS011;269;48.884;9.192;2022-09-23T06:05:15;8.75;;;7.85;;
568;SDS011;269;48.884;9.192;2022-09-23T06:07:43;10.32;;;8.45;;
568;SDS011;269;48.884;9.192;2022-09-23T06:10:11;9.93;;;8.90;;
568;SDS011;269;48.884;9.192;2022-09-23T06:12:37;9.13;;;8.32;;
568;SDS011;269;48.884;9.192;2022-09-23T06:15:07;8.90;;;7.78;;
568;SDS011;269;48.884;9.192;2022-09-23T06:17:35;8.45;;;7.75;;
568;SDS011;269;48.884;9.192;2022-09-23T06:20:02;8.15;;;7.45;;
568;SDS011;269;48.884;9.192;2022-09-23T06:22:29;8.65;;;7.32;;
568;SDS011;269;48.884;9.192;2022-09-23T06:24:57;8.48;;;7.68;;
568;SDS011;269;48.884;9.192;2022-09-23T06:27:24;8.60;;;7.82;;
568;SDS011;269;48.884;9.192;2022-09-23T06:29:51;8.45;;;7.65;;
568;SDS011;269;48.884;9.192;2022-09-23T06:32:18;8.15;;;6.85;;
568;SDS011;269;48.884;9.192;2022-09-23T06:34:46;7.20;;;6.60;;
568;SDS011;269;48.884;9.192;2022-09-23T06:37:14;8.25;;;7.55;;
568;SDS011;269;48.884;9.192;2022-09-23T06:39:41;7.40;;;6.55;;
568;SDS011;269;48.884;9.192;2022-09-23T06:42:09;11.88;;;6.88;;
568;SDS011;269;48.884;9.192;2022-09-23T06:44:37;8.20;;;7.05;;
568;SDS011;269;48.884;9.192;2022-09-23T06:47:04;7.28;;;6.53;;
568;SDS011;269;48.884;9.192;2022-09-23T06:49:34;6.40;;;5.90;;
568;SDS011;269;48.884;9.192;2022-09-23T06:52:02;6.63;;;6.13;;
568;SDS011;269;48.884;9.192;2022-09-23T06:54:30;6.57;;;5.97;;
568;SDS011;269;48.884;9.192;2022-09-23T06:56:57;7.82;;;6.40;;
568;SDS011;269;48.884;9.192;2022-09-23T06:59:25;6.97;;;6.32;;
568;SDS011;269;48.884;9.192;2022-09-23T07:01:52;6.22;;;5.63;;
568;SDS011;269;48.884;9.192;2022-09-23T07:04:19;6.82;;;6.03;;
568;SDS011;269;48.884;9.192;2022-09-23T07:06:46;6.45;;;5.85;;
568;SDS011;269;48.884;9.192;2022-09-23T07:09:13;5.78;;;5.28;;
568;SDS011;269;48.884;9.192;2022-09-23T07:11:40;6.00;;;5.53;;
568;SDS011;269;48.884;9.192;2022-09-23T07:14:08;6.07;;;5.57;;
568;SDS011;269;48.884;9.192;2022-09-23T07:16:36;7.22;;;6.22;;
568;SDS011;269;48.884;9.192;2022-09-23T07:19:03;7.07;;;6.47;;
568;SDS011;269;48.884;9.192;2022-09-23T07:21:30;6.65;;;6.15;;
568;SDS011;269;48.884;9.192;2022-09-23T07:23:57;6.07;;;5.57;;
568;SDS011;269;48.884;9.192;2022-09-23T07:26:24;7.15;;;6.10;;
568;SDS011;269;48.884;9.192;2022-09-23T07:28:52;7.03;;;6.45;;
568;SDS011;269;48.884;9.192;2022-09-23T07:31:21;6.40;;;5.80;;
568;SDS011;269;48.884;9.192;2022-09-23T07:33:54;5.97;;;5.57;;
568;SDS011;269;48.884;9.192;2022-09-23T07:36:21;6.20;;;5.70;;
568;SDS011;269;48.884;9.192;2022-09-23T07:38:49;6.40;;;5.90;;
568;SDS011;269;48.884;9.192;2022-09-23T07:41:17;7.30;;;6.60;;
568;SDS011;269;48.884;9.192;2022-09-23T07:43:44;6.13;;;5.50;;
568;SDS011;269;48.884;9.192;2022-09-23T07:46:13;6.63;;;5.93;;
568;SDS011;269;48.884;9.192;2022-09-23T07:48:42;5.50;;;5.10;;
568;SDS011;269;48.884;9.192;2022-09-23T07:51:12;7.63;;;6.03;;
568;SDS011;269;48.884;9.192;2022-09-23T07:53:44;5.73;;;5.17;;
568;SDS011;269;48.884;9.192;2022-09-23T07:56:12;6.30;;;5.30;;
568;SDS011;269;48.884;9.192;2022-09-23T07:58:39;6.30;;;5.40;;
568;SDS011;269;48.884;9.192;2022-09-23T08:01:07;5.87;;;5.37;;
568;SDS011;269;48.884;9.192;2022-09-23T08:03:36;5.40;;;4.90;;
568;SDS011;269;48.884;9.192;2022-09-23T08:06:04;5.55;;;5.15;;
568;SDS011;269;48.884;9.192;2022-09-23T08:08:34;5.60;;;5.20;;
568;SDS011;269;48.884;9.192;2022-09-23T08:11:05;5.50;;;5.00;;
568;SDS011;269;48.884;9.192;2022-09-23T08:13:34;5.97;;;4.95;;
568;SDS011;269;48.884;9.192;2022-09-23T08:16:01;5.30;;;4.80;;
568;SDS011;269;48.884;9.192;2022-09-23T08:18:29;5.40;;;5.00;;
568;SDS011;269;48.884;9.192;2022-09-23T08:20:56;4.90;;;4.50;;
568;SDS011;269;48.884;9.192;2022-09-23T08:23:23;5.50;;;5.10;;
568;SDS011;269;48.884;9.192;2022-09-23T08:25:56;5.13;;;4.63;;
568;SDS011;269;48.884;9.192;2022-09-23T08:28:24;3.93;;;3.63;;
568;SDS011;269;48.884;9.192;2022-09-23T08:30:51;4.77;;;4.37;;
568;SDS011;269;48.884;9.192;2022-09-23T08:33:18;4.13;;;3.83;;
568;SDS011;269;48.884;9.192;2022-09-23T08:35:45;4.10;;;3.80;;
568;SDS011;269;48.884;9.192;2022-09-23T08:38:13;3.83;;;3.53;;
568;SDS011;269;48.884;9.192;2022-09-23T08:40:41;3.63;;;3.37;;
568;SDS011;269;48.884;9.192;2022-09-23T08:43:25;3.63;;;3.30;;
568;SDS011;269;48.884;9.192;2022-09-23T08:45:55;4.73;;;3.67;;
568;SDS011;269;48.884;9.192;2022-09-23T08:48:26;3.43;;;3.17;;
568;SDS011;269;48.884;9.192;2022-09-23T08:50:57;4.33;;;3.50;;
568;SDS011;269;48.884;9.192;2022-09-23T08:53:28;4.63;;;3.63;;
568;SDS011;269;48.884;9.192;2022-09-23T08:55:59;4.03;;;3.73;;
568;SDS011;269;48.884;9.192;2022-09-23T08:58:39;3.50;;;3.30;;
568;SDS011;269;48.884;9.192;2022-09-23T09:01:14;4.20;;;3.90;;
568;SDS011;269;48.884;9.192;2022-09-23T09:03:47;4.30;;;4.00;;
568;SDS011;269;48.884;9.192;2022-09-23T09:06:19;3.67;;;3.37;;
568;SDS011;269;48.884;9.192;2022-09-23T09:08:53;4.33;;;3.93;;
568;SDS011;269;48.884;9.192;2022-09-23T09:11:23;4.00;;;3.70;;
568;SDS011;269;48.884;9.192;2022-09-23T09:13:58;4.03;;;3.57;;
568;SDS011;269;48.884;9.192;2022-09-23T09:16:34;3.67;;;3.37;;
568;SDS011;269;48.884;9.192;2022-09-23T09:19:12;3.87;;;3.57;;
568;SDS011;269;48.884;9.192;2022-09-23T09:21:44;3.70;;;3.40;;
568;SDS011;269;48.884;9.192;2022-09-23T09:24:16;3.43;;;3.13;;
568;SDS011;269;48.884;9.192;2022-09-23T09:26:45;3.63;;;3.43;;
568;SDS011;269;48.884;9.192;2022-09-23T09:29:14;3.60;;;3.30;;
568;SDS011;269;48.884;9.192;2022-09-23T09:31:45;3.77;;;3.10;;
568;SDS011;269;48.884;9.192;2022-09-23T09:34:16;4.63;;;3.00;;
568;SDS011;269;48.884;9.192;2022-09-23T09:36:53;4.50;;;3.60;;
568;SDS011;269;48.884;9.192;2022-09-23T09:39:25;3.70;;;3.40;;
568;SDS011;269;48.884;9.192;2022-09-23T09:41:53;3.40;;;3.10;;
568;SDS011;269;48.884;9.192;2022-09-23T09:44:24;3.77;;;3.47;;
568;SDS011;269;48.884;9.192;2022-09-23T09:47:01;5.67;;;3.80;;
568;SDS011;269;48.884;9.192;2022-09-23T09:49:44;4.47;;;4.10;;
568;SDS011;269;48.884;9.192;2022-09-23T09:52:19;4.37;;;3.70;;
568;SDS011;269;48.884;9.192;2022-09-23T09:54:48;4.10;;;3.73;;
568;SDS011;269;48.884;9.192;2022-09-23T09:57:17;4.53;;;4.13;;
568;SDS011;269;48.884;9.192;2022-09-23T09:59:56;5.23;;;4.43;;
568;SDS011;269;48.884;9.192;2022-09-23T10:02:25;5.20;;;4.77;;
568;SDS011;269;48.884;9.192;2022-09-23T10:04:56;4.33;;;4.03;;
568;SDS011;269;48.884;9.192;2022-09-23T10:07:26;4.40;;;4.00;;
568;SDS011;269;48.884;9.192;2022-09-23T10:09:54;3.53;;;3.33;;
568;SDS011;269;48.884;9.192;2022-09-23T10:12:22;4.20;;;3.90;;
568;SDS011;269;48.884;9.192;2022-09-23T10:14:51;3.90;;;3.50;;
568;SDS011;269;48.884;9.192;2022-09-23T10:17:24;4.17;;;3.87;;
568;SDS011;269;48.884;9.192;2022-09-23T10:19:57;4.60;;;3.67;;
568;SDS011;269;48.884;9.192;2022-09-23T10:22:30;4.30;;;4.00;;
568;SDS011;269;48.884;9.192;2022-09-23T10:25:00;4.77;;;3.80;;
568;SDS011;269;48.884;9.192;2022-09-23T10:27:35;3.73;;;3.43;;
568;SDS011;269;48.884;9.192;2022-09-23T10:30:03;4.73;;;4.10;;
568;SDS011;269;48.884;9.192;2022-09-23T10:32:47;4.40;;;4.00;;
568;SDS011;269;48.884;9.192;2022-09-23T10:35:15;3.70;;;3.40;;
568;SDS011;269;48.884;9.192;2022-09-23T10:37:45;4.00;;;3.70;;
568;SDS011;269;48.884;9.192;2022-09-23T10:40:16;3.70;;;3.40;;
568;SDS011;269;48.884;9.192;2022-09-23T10:43:16;4.30;;;3.80;;
568;SDS011;269;48.884;9.192;2022-09-23T10:46:07;4.27;;;3.83;;
568;SDS011;269;48.884;9.192;2022-09-23T10:49:02;3.63;;;3.33;;
568;SDS011;269;48.884;9.192;2022-09-23T10:51:54;4.23;;;3.70;;
568;SDS011;269;48.884;9.192;2022-09-23T10:54:35;4.63;;;4.30;;
568;SDS011;269;48.884;9.192;2022-09-23T10:57:15;5.40;;;4.07;;
568;SDS011;269;48.884;9.192;2022-09-23T11:00:11;5.80;;;4.20;;
568;SDS011;269;48.884;9.192;2022-09-23T11:02:55;3.80;;;3.50;;
568;SDS011;269;48.884;9.192;2022-09-23T11:05:38;3.90;;;3.70;;
568;SDS011;269;48.884;9.192;2022-09-23T11:08:17;4.13;;;3.27;;
568;SDS011;269;48.884;9.192;2022-09-23T11:10:57;6.03;;;3.97;;
568;SDS011;269;48.884;9.192;2022-09-23T11:13:41;4.10;;;3.47;;
568;SDS011;269;48.884;9.192;2022-09-23T11:16:23;5.13;;;3.20;;
568;SDS011;269;48.884;9.192;2022-09-23T11:19:13;4.37;;;3.50;;
568;SDS011;269;48.884;9.192;2022-09-23T11:21:55;3.50;;;3.20;;
568;SDS011;269;48.884;9.192;2022-09-23T11:27:44;3.80;;;3.50;;
568;SDS011;269;48.884;9.192;2022-09-23T11:30:25;2.90;;;2.70;;
568;SDS011;269;48.884;9.192;2022-09-23T11:33:15;3.43;;;2.90;;
568;SDS011;269;48.884;9.192;2022-09-23T11:35:52;3.60;;;3.30;;
568;SDS011;269;48.884;9.192;2022-09-23T11:38:26;3.43;;;3.13;;
568;SDS011;269;48.884;9.192;2022-09-23T11:41:03;4.10;;;3.20;;
568;SDS011;269;48.884;9.192;2022-09-23T11:43:41;4.10;;;3.70;;
568;SDS011;269;48.884;9.192;2022-09-23T11:46:19;3.80;;;3.50;;
568;SDS011;269;48.884;9.192;2022-09-23T11:48:55;3.13;;;2.90;;
568;SDS011;269;48.884;9.192;2022-09-23T11:51:29;3.40;;;3.20;;
568;SDS011;269;48.884;9.192;2022-09-23T11:54:04;3.57;;;3.30;;
568;SDS011;269;48.884;9.192;2022-09-23T11:56:39;3.67;;;3.37;;
568;SDS011;269;48.884;9.192;2022-09-23T11:59:12;2.87;;;2.67;;
568;SDS011;269;48.884;9.192;2022-09-23T12:01:45;3.10;;;2.90;;
568;SDS011;269;48.884;9.192;2022-09-23T12:04:18;3.97;;;3.67;;
568;SDS011;269;48.884;9.192;2022-09-23T12:06:53;3.30;;;3.00;;
568;SDS011;269;48.884;9.192;2022-09-23T12:09:29;5.03;;;4.07;;
568;SDS011;269;48.884;9.192;2022-09-23T12:12:03;3.37;;;3.07;;
568;SDS011;269;48.884;9.192;2022-09-23T12:14:35;3.80;;;3.17;;
568;SDS011;269;48.884;9.192;2022-09-23T12:17:26;4.00;;;2.97;;
568;SDS011;269;48.884;9.192;2022-09-23T12:20:29;4.30;;;3.50;;
568;SDS011;269;48.884;9.192;2022-09-23T12:23:23;3.37;;;3.07;;
568;SDS011;269;48.884;9.192;2022-09-23T12:26:03;3.60;;;3.40;;
568;SDS011;269;48.884;9.192;2022-09-23T12:28:35;4.97;;;3.30;;
568;SDS011;269;48.884;9.192;2022-09-23T12:31:07;3.60;;;3.30;;
568;SDS011;269;48.884;9.192;2022-09-23T12:33:38;3.40;;;3.10;;
568;SDS011;269;48.884;9.192;2022-09-23T12:36:13;3.80;;;3.50;;
568;SDS011;269;48.884;9.192;2022-09-23T12:38:45;3.37;;;3.03;;
568;SDS011;269;48.884;9.192;2022-09-23T12:41:19;5.60;;;3.00;;
568;SDS011;269;48.884;9.192;2022-09-23T12:43:52;3.10;;;2.80;;
568;SDS011;269;48.884;9.192;2022-09-23T12:46:21;3.73;;;3.40;;
568;SDS011;269;48.884;9.192;2022-09-23T12:49:00;3.13;;;2.90;;
568;SDS011;269;48.884;9.192;2022-09-23T12:51:28;3.33;;;3.03;;
568;SDS011;269;48.884;9.192;2022-09-23T12:57:01;2.60;;;2.40;;
568;SDS011;269;48.884;9.192;2022-09-23T12:59:30;3.23;;;2.80;;
568;SDS011;269;48.884;9.192;2022-09-23T13:02:23;2.60;;;2.50;;
568;SDS011;269;48.884;9.192;2022-09-23T13:05:03;3.30;;;3.00;;
568;SDS011;269;48.884;9.192;2022-09-23T13:08:04;2.77;;;2.57;;
568;SDS011;269;48.884;9.192;2022-09-23T13:10:36;2.27;;;2.07;;
568;SDS011;269;48.884;9.192;2022-09-23T13:13:10;2.30;;;2.10;;
568;SDS011;269;48.884;9.192;2022-09-23T13:15:47;2.90;;;2.43;;
568;SDS011;269;48.884;9.192;2022-09-23T13:24:35;2.83;;;2.40;;
568;SDS011;269;48.884;9.192;2022-09-23T13:27:09;2.93;;;2.73;;
568;SDS011;269;48.884;9.192;2022-09-23T13:29:45;3.30;;;3.00;;
568;SDS011;269;48.884;9.192;2022-09-23T13:32:17;3.20;;;3.00;;
568;SDS011;269;48.884;9.192;2022-09-23T13:34:45;3.90;;;3.10;;
568;SDS011;269;48.884;9.192;2022-09-23T13:37:21;3.50;;;3.20;;
568;SDS011;269;48.884;9.192;2022-09-23T13:39:50;5.37;;;4.40;;
568;SDS011;269;48.884;9.192;2022-09-23T13:42:19;3.33;;;3.03;;
568;SDS011;269;48.884;9.192;2022-09-23T13:44:53;3.80;;;3.40;;
568;SDS011;269;48.884;9.192;2022-09-23T13:47:25;3.70;;;3.20;;
568;SDS011;269;48.884;9.192;2022-09-23T13:49:55;3.57;;;3.30;;
568;SDS011;269;48.884;9.192;2022-09-23T13:52:23;3.03;;;2.77;;
568;SDS011;269;48.884;9.192;2022-09-23T13:54:52;4.37;;;3.97;;
568;SDS011;269;48.884;9.192;2022-09-23T13:57:26;4.13;;;3.83;;
568;SDS011;269;48.884;9.192;2022-09-23T13:59:59;4.03;;;3.73;;
568;SDS011;269;48.884;9.192;2022-09-23T14:02:28;3.83;;;3.57;;
568;SDS011;269;48.884;9.192;2022-09-23T14:04:55;4.70;;;3.97;;
568;SDS011;269;48.884;9.192;2022-09-23T14:07:23;4.47;;;4.07;;
568;SDS011;269;48.884;9.192;2022-09-23T14:09:52;4.40;;;4.00;;
568;SDS011;269;48.884;9.192;2022-09-23T14:12:20;4.10;;;3.70;;
568;SDS011;269;48.884;9.192;2022-09-23T14:14:48;5.07;;;3.13;;
568;SDS011;269;48.884;9.192;2022-09-23T14:17:19;4.00;;;3.70;;
568;SDS011;269;48.884;9.192;2022-09-23T14:19:48;3.43;;;3.13;;
568;SDS011;269;48.884;9.192;2022-09-23T14:22:22;3.50;;;3.20;;
568;SDS011;269;48.884;9.192;2022-09-23T14:24:50;4.00;;;3.60;;
568;SDS011;269;48.884;9.192;2022-09-23T14:27:21;5.87;;;3.93;;
568;SDS011;269;48.884;9.192;2022-09-23T14:29:53;4.27;;;3.60;;
568;SDS011;269;48.884;9.192;2022-09-23T14:32:22;3.30;;;3.07;;
568;SDS011;269;48.884;9.192;2022-09-23T14:35:03;4.07;;;3.77;;
568;SDS011;269;48.884;9.192;2022-09-23T14:37:37;3.73;;;3.40;;
568;SDS011;269;48.884;9.192;2022-09-23T14:40:25;2.80;;;2.50;;
568;SDS011;269;48.884;9.192;2022-09-23T14:42:56;3.80;;;2.80;;
568;SDS011;269;48.884;9.192;2022-09-23T14:45:25;3.67;;;3.40;;
568;SDS011;269;48.884;9.192;2022-09-23T14:47:59;3.07;;;2.80;;
568;SDS011;269;48.884;9.192;2022-09-23T14:50:30;3.60;;;3.00;;
568;SDS011;269;48.884;9.192;2022-09-23T14:56:07;3.43;;;3.13;;
568;SDS011;269;48.884;9.192;2022-09-23T14:58:43;4.93;;;3.27;;
568;SDS011;269;48.884;9.192;2022-09-23T15:01:26;3.60;;;3.30;;
568;SDS011;269;48.884;9.192;2022-09-23T15:04:08;3.20;;;2.90;;
568;SDS011;269;48.884;9.192;2022-09-23T15:06:39;3.10;;;2.90;;
568;SDS011;269;48.884;9.192;2022-09-23T15:09:09;3.67;;;3.37;;
568;SDS011;269;48.884;9.192;2022-09-23T15:11:41;3.63;;;3.00;;
568;SDS011;269;48.884;9.192;2022-09-23T15:14:08;3.70;;;3.37;;
568;SDS011;269;48.884;9.192;2022-09-23T15:16:35;3.60;;;3.30;;
568;SDS011;269;48.884;9.192;2022-09-23T15:19:11;3.47;;;3.13;;
568;SDS011;269;48.884;9.192;2022-09-23T15:21:46;3.93;;;3.50;;
568;SDS011;269;48.884;9.192;2022-09-23T15:24:34;3.63;;;3.23;;
568;SDS011;269;48.884;9.192;2022-09-23T15:29:59;4.33;;;3.60;;
568;SDS011;269;48.884;9.192;2022-09-23T15:32:33;3.83;;;3.53;;
568;SDS011;269;48.884;9.192;2022-09-23T15:35:01;4.10;;;3.60;;
568;SDS011;269;48.884;9.192;2022-09-23T15:37:29;4.23;;;3.83;;
568;SDS011;269;48.884;9.192;2022-09-23T15:39:56;3.93;;;3.63;;
568;SDS011;269;48.884;9.192;2022-09-23T15:42:23;3.40;;;3.10;;
568;SDS011;269;48.884;9.192;2022-09-23T15:44:50;3.67;;;3.37;;
568;SDS011;269;48.884;9.192;2022-09-23T15:47:17;4.30;;;3.90;;
568;SDS011;269;48.884;9.192;2022-09-23T15:49:46;3.53;;;3.30;;
568;SDS011;269;48.884;9.192;2022-09-23T15:52:14;4.77;;;4.37;;
568;SDS011;269;48.884;9.192;2022-09-23T15:54:41;4.67;;;4.20;;
568;SDS011;269;48.884;9.192;2022-09-23T15:57:09;5.80;;;3.63;;
568;SDS011;269;48.884;9.192;2022-09-23T15:59:36;4.43;;;4.03;;
568;SDS011;269;48.884;9.192;2022-09-23T16:02:03;3.40;;;3.10;;
568;SDS011;269;48.884;9.192;2022-09-23T16:04:40;3.07;;;2.83;;
568;SDS011;269;48.884;9.192;2022-09-23T16:07:08;3.60;;;2.93;;
568;SDS011;269;48.884;9.192;2022-09-23T16:09:40;4.23;;;3.83;;
568;SDS011;269;48.884;9.192;2022-09-23T16:12:07;9.00;;;8.20;;
568;SDS011;269;48.884;9.192;2022-09-23T16:14:36;9.03;;;8.23;;
568;SDS011;269;48.884;9.192;2022-09-23T16:17:03;7.07;;;6.23;;
568;SDS011;269;48.884;9.192;2022-09-23T16:19:32;6.97;;;6.37;;
568;SDS011;269;48.884;9.192;2022-09-23T16:21:59;4.83;;;4.33;;
568;SDS011;269;48.884;9.192;2022-09-23T16:24:26;3.73;;;3.43;;
568;SDS011;269;48.884;9.192;2022-09-23T16:26:56;3.80;;;3.50;;
568;SDS011;269;48.884;9.192;2022-09-23T16:29:25;4.00;;;3.60;;
568;SDS011;269;48.884;9.192;2022-09-23T16:31:52;4.43;;;4.03;;
568;SDS011;269;48.884;9.192;2022-09-23T16:34:19;3.40;;;3.10;;
568;SDS011;269;48.884;9.192;2022-09-23T16:36:46;3.47;;;3.17;;